createdAt,value
2022-09-26T00:03:38.150Z,96744.81
2022-09-26T00:08:43.087Z,96741.88
2022-09-26T00:13:47.186Z,96736.91
2022-09-26T00:18:51.768Z,96741.06
2022-09-26T00:23:57.855Z,96730.44
2022-09-26T00:29:04.663Z,96733.31
2022-09-26T00:34:08.652Z,96736.09
2022-09-26T00:39:15.693Z,96731.47
2022-09-26T00:44:43.066Z,96729.34
2022-09-26T00:49:47.447Z,96729.88
2022-09-26T00:54:56.058Z,96728.50
2022-09-26T01:00:02.990Z,96716.38
2022-09-26T01:05:09.381Z,96724.50
2022-09-26T01:10:15.476Z,96725.13
2022-09-26T01:15:19.374Z,96714.81
2022-09-26T01:20:31.555Z,96710.25
2022-09-26T01:25:58.868Z,96696.38
2022-09-26T01:31:13.340Z,96689.59
2022-09-26T01:36:56.748Z,96689.78
2022-09-26T01:42:10.490Z,96691.75
2022-09-26T01:47:19.148Z,96679.53
2022-09-26T01:52:33.702Z,96685.22
2022-09-26T01:57:43.948Z,96682.59
2022-09-26T02:02:51.149Z,96684.28
2022-09-26T02:08:01.384Z,96677.28
2022-09-26T02:13:14.865Z,96676.84
2022-09-26T02:18:30.904Z,96677.41
2022-09-26T02:23:34.799Z,96667.34
2022-09-26T02:28:38.831Z,96658.38
2022-09-26T02:33:46.192Z,96661.41
2022-09-26T02:38:50.148Z,96650.31
2022-09-26T02:44:30.044Z,96650.28
2022-09-26T02:49:54.983Z,96643.81
2022-09-26T02:55:09.682Z,96636.94
2022-09-26T03:00:20.414Z,96629.63
2022-09-26T03:05:28.573Z,96624.88
2022-09-26T03:10:33.728Z,96623.97
2022-09-26T03:15:39.866Z,96628.72
2022-09-26T03:20:45.414Z,96630.84
2022-09-26T03:25:58.711Z,96626.66
2022-09-26T03:31:03.540Z,96618.34
2022-09-26T03:36:16.908Z,96624.09
2022-09-26T03:41:21.019Z,96621.47
2022-09-26T03:46:40.259Z,96620.56
2022-09-26T03:51:47.055Z,96601.94
2022-09-26T03:56:52.115Z,96599.56
2022-09-26T04:01:56.119Z,96589.66
2022-09-26T04:07:02.861Z,96579.47
2022-09-26T04:12:08.133Z,96574.13
2022-09-26T04:17:16.798Z,96569.09
2022-09-26T04:22:29.922Z,96564.47
2022-09-26T04:27:35.693Z,96562.91
2022-09-26T04:32:40.100Z,96559.34
2022-09-26T04:38:05.037Z,96546.22
2022-09-26T04:43:10.083Z,96547.50
2022-09-26T04:48:14.736Z,96537.22
2022-09-26T04:53:19.918Z,96544.88
2022-09-26T04:59:00.351Z,96541.31
2022-09-26T05:04:13.678Z,96534.63
2022-09-26T05:09:20.927Z,96520.97
2022-09-26T05:14:36.728Z,96527.44
2022-09-26T05:19:43.176Z,96527.06
2022-09-26T05:25:17.700Z,96519.44
2022-09-26T05:30:21.478Z,96519.28
2022-09-26T05:35:26.286Z,96514.53
2022-09-26T05:40:49.627Z,96507.59
2022-09-26T05:45:58.802Z,96504.59
2022-09-26T05:51:09.964Z,96502.22
2022-09-26T05:56:19.746Z,96498.75
2022-09-26T06:01:42.521Z,96505.09
2022-09-26T06:07:01.323Z,96501.81
2022-09-26T06:12:06.735Z,96503.34
2022-09-26T06:17:10.778Z,96493.84
2022-09-26T06:22:14.704Z,96491.16
2022-09-26T06:27:20.457Z,96485.00
2022-09-26T06:32:24.531Z,96477.78
2022-09-26T06:37:48.559Z,96481.56
2022-09-26T06:42:55.929Z,96480.13
2022-09-26T06:48:05.538Z,96471.47
2022-09-26T06:53:30.955Z,96459.69
2022-09-26T06:58:37.427Z,96450.28
2022-09-26T07:03:45.932Z,96451.19
2022-09-26T07:09:19.320Z,96444.31
2022-09-26T07:14:31.227Z,96447.84
2022-09-26T07:19:41.149Z,96446.03
2022-09-26T07:24:49.633Z,96444.28
2022-09-26T07:29:56.523Z,96456.06
2022-09-26T07:35:03.436Z,96445.56
2022-09-26T07:40:08.064Z,96452.47
2022-09-26T07:45:30.068Z,96450.78
2022-09-26T07:50:33.956Z,96444.88
2022-09-26T07:56:04.839Z,96450.88
2022-09-26T08:01:34.578Z,96457.50
2022-09-26T08:07:01.099Z,96445.22
2022-09-26T08:12:05.456Z,96457.81
2022-09-26T08:17:43.479Z,96453.13
2022-09-26T08:22:47.729Z,96443.22
2022-09-26T08:27:59.622Z,96443.22
2022-09-26T08:33:07.012Z,96442.66
2022-09-26T08:38:11.038Z,96447.56
2022-09-26T08:43:32.090Z,96440.06
2022-09-26T08:49:22.838Z,96430.50
2022-09-26T08:54:36.679Z,96426.50
2022-09-26T08:59:43.581Z,96421.19
2022-09-26T09:04:57.640Z,96408.50
2022-09-26T09:10:06.222Z,96407.56
2022-09-26T09:15:54.967Z,96417.72
2022-09-26T09:21:18.722Z,96402.78
2022-09-26T09:32:13.142Z,96393.97
2022-09-26T09:37:43.461Z,96384.28
2022-09-26T09:43:02.755Z,96379.03
2022-09-26T09:48:11.944Z,96386.31
2022-09-26T09:53:33.082Z,96378.91
2022-09-26T09:58:52.692Z,96381.34
2022-09-26T10:04:04.124Z,96377.84
2022-09-26T10:09:35.632Z,96360.69
2022-09-26T10:15:07.734Z,96339.84
2022-09-26T10:20:39.197Z,96332.41
2022-09-26T10:25:49.786Z,96313.72
2022-09-26T10:30:56.648Z,96311.00
2022-09-26T10:36:11.816Z,96312.72
2022-09-26T10:41:26.291Z,96308.78
2022-09-26T10:46:32.771Z,96307.44
2022-09-26T10:52:03.095Z,96306.91
2022-09-26T10:57:18.394Z,96309.50
2022-09-26T11:02:25.765Z,96294.63
2022-09-26T11:07:36.026Z,96293.78
2022-09-26T11:13:16.190Z,96285.22
2022-09-26T11:18:27.018Z,96273.63
2022-09-26T11:23:35.889Z,96267.81
2022-09-26T11:28:45.252Z,96259.59
2022-09-26T11:34:03.351Z,96258.66
2022-09-26T11:39:40.988Z,96248.72
2022-09-26T11:44:56.747Z,96232.97
2022-09-26T11:50:40.851Z,96236.28
2022-09-26T11:56:10.272Z,96218.97
2022-09-26T12:01:38.832Z,96210.16
2022-09-26T12:06:55.220Z,96211.63
2022-09-26T12:12:14.450Z,96199.75
2022-09-26T12:17:35.143Z,96194.97
2022-09-26T12:22:46.373Z,96190.34
2022-09-26T12:28:00.603Z,96181.94
2022-09-26T12:33:31.191Z,96174.63
2022-09-26T12:39:05.383Z,96161.94
2022-09-26T12:44:31.370Z,96146.81
2022-09-26T12:50:01.233Z,96149.03
2022-09-26T12:55:22.105Z,96138.72
2022-09-26T13:00:27.840Z,96125.13
2022-09-26T13:05:47.923Z,96125.97
2022-09-26T13:11:06.340Z,96127.16
2022-09-26T13:16:25.214Z,96119.97
2022-09-26T13:21:45.165Z,96105.50
2022-09-26T13:26:54.932Z,96086.53
2022-09-26T13:32:11.249Z,96084.00
2022-09-26T13:37:29.423Z,96074.25
2022-09-26T13:42:43.592Z,96070.84
2022-09-26T13:47:56.116Z,96071.06
2022-09-26T13:53:13.283Z,96057.31
2022-09-26T13:58:22.079Z,96062.94
2022-09-26T14:03:44.777Z,96052.41
2022-09-26T14:09:28.764Z,96056.28
2022-09-26T14:15:03.562Z,96049.47
2022-09-26T14:20:17.404Z,96053.56
2022-09-26T14:26:04.243Z,96028.91
2022-09-26T14:31:43.963Z,96023.63
2022-09-26T14:36:49.942Z,96008.94
2022-09-26T14:41:54.642Z,95996.09
2022-09-26T14:46:58.468Z,96000.56
2022-09-26T14:52:08.926Z,95991.84
2022-09-26T14:57:22.557Z,95993.69
2022-09-26T15:02:39.515Z,95990.88
2022-09-26T15:07:47.300Z,95982.91
2022-09-26T15:12:56.780Z,95976.19
2022-09-26T15:18:08.238Z,95989.81
2022-09-26T15:23:36.065Z,95991.09
2022-09-26T15:28:40.215Z,95989.22
2022-09-26T15:33:43.972Z,95978.91
2022-09-26T15:38:49.318Z,95971.88
2022-09-26T15:44:01.900Z,95962.31
2022-09-26T15:49:15.265Z,95962.25
2022-09-26T15:54:25.467Z,95960.59
2022-09-26T15:59:35.426Z,95959.47
2022-09-26T16:04:42.857Z,95949.88
2022-09-26T16:09:51.328Z,95937.09
2022-09-26T16:15:00.807Z,95931.22
2022-09-26T16:20:23.239Z,95919.56
2022-09-26T16:25:53.094Z,95922.03
2022-09-26T16:31:29.773Z,95928.28
2022-09-26T16:36:35.510Z,95925.06
2022-09-26T16:42:02.475Z,95935.81
2022-09-26T16:47:29.241Z,95938.47
2022-09-26T16:52:35.684Z,95941.06
2022-09-26T16:57:51.351Z,95939.56
2022-09-26T17:02:55.173Z,95941.47
2022-09-26T17:08:01.742Z,95943.97
2022-09-26T17:13:07.561Z,95945.22
2022-09-26T17:18:14.202Z,95935.88
2022-09-26T17:23:38.738Z,95928.78
2022-09-26T17:28:46.262Z,95922.69
2022-09-26T17:33:53.603Z,95915.59
2022-09-26T17:38:59.793Z,95908.31
2022-09-26T17:44:05.046Z,95896.41
2022-09-26T17:49:15.534Z,95892.34
2022-09-26T17:54:24.300Z,95895.81
2022-09-26T17:59:31.737Z,95875.78
2022-09-26T18:04:36.982Z,95877.97
2022-09-26T18:09:41.123Z,95874.78
2022-09-26T18:14:47.040Z,95883.56
2022-09-26T18:19:51.291Z,95878.28
2022-09-26T18:25:00.688Z,95873.41
2022-09-26T18:30:09.464Z,95860.34
2022-09-26T18:35:17.124Z,95854.88
2022-09-26T18:40:21.905Z,95855.41
2022-09-26T18:45:29.599Z,95853.06
2022-09-26T18:50:37.010Z,95850.94
2022-09-26T18:56:00.998Z,95839.28
2022-09-26T19:01:08.866Z,95835.72
2022-09-26T19:06:16.376Z,95830.25
2022-09-26T19:11:22.989Z,95821.69
2022-09-26T19:16:28.726Z,95818.38
2022-09-26T19:21:36.389Z,95811.19
2022-09-26T19:26:43.483Z,95799.78
2022-09-26T19:31:51.372Z,95791.69
2022-09-26T19:36:55.318Z,95782.16
2022-09-26T19:41:58.955Z,95781.31
2022-09-26T19:47:04.768Z,95770.41
2022-09-26T19:52:17.324Z,95781.31
2022-09-26T19:57:22.368Z,95775.50
2022-09-26T20:02:32.791Z,95762.28
2022-09-26T20:07:36.298Z,95757.09
2022-09-26T20:12:40.119Z,95749.53
2022-09-26T20:17:46.958Z,95741.66
2022-09-26T20:22:52.371Z,95726.34
2022-09-26T20:27:56.869Z,95713.03
2022-09-26T20:33:01.726Z,95714.25
2022-09-26T20:38:10.027Z,95696.13
2022-09-26T20:43:17.997Z,95692.44
2022-09-26T20:48:25.770Z,95690.16
2022-09-26T20:53:29.364Z,95679.72
2022-09-26T20:58:32.962Z,95667.53
2022-09-26T21:03:41.320Z,95651.28
2022-09-26T21:08:48.256Z,95647.97
2022-09-26T21:13:51.908Z,95633.97
2022-09-26T21:18:56.998Z,95637.44
2022-09-26T21:24:01.119Z,95635.59
2022-09-26T21:29:07.619Z,95629.50
2022-09-26T21:34:18.450Z,95614.09
2022-09-26T21:39:22.774Z,95618.56
2022-09-26T21:44:30.428Z,95618.44
2022-09-26T21:49:35.481Z,95617.09
2022-09-26T21:54:42.924Z,95619.09
2022-09-26T21:59:47.587Z,95605.53
2022-09-26T22:04:53.236Z,95590.25
2022-09-26T22:09:58.278Z,95576.88
2022-09-26T22:15:01.893Z,95568.53
2022-09-26T22:20:07.290Z,95573.59
2022-09-26T22:25:11.333Z,95560.13
2022-09-26T22:30:15.468Z,95557.63
2022-09-26T22:35:20.548Z,95546.22
2022-09-26T22:40:24.095Z,95530.69
2022-09-26T22:45:27.872Z,95515.47
2022-09-26T22:50:32.755Z,95528.22
2022-09-26T22:55:36.418Z,95530.09
2022-09-26T23:00:40.018Z,95525.59
2022-09-26T23:05:47.437Z,95521.50
2022-09-26T23:10:51.619Z,95499.16
2022-09-26T23:15:55.408Z,95480.88
2022-09-26T23:21:00.344Z,95468.66
2022-09-26T23:26:04.674Z,95451.84
2022-09-26T23:31:09.181Z,95456.72
2022-09-26T23:36:14.491Z,95454.13
2022-09-26T23:41:18.121Z,95441.72
2022-09-26T23:46:21.918Z,95425.72
2022-09-26T23:51:27.037Z,95423.03
2022-09-26T23:56:30.700Z,95419.41
